createdAt,value
2023-05-03T00:01:01.652Z,25.30
2023-05-03T00:02:04.775Z,20.35
2023-05-03T00:03:11.141Z,22.95
2023-05-03T00:04:15.278Z,22.55
2023-05-03T00:05:20.353Z,24.05
2023-05-03T00:06:22.629Z,23.05
2023-05-03T00:07:27.598Z,17.58
2023-05-03T00:08:29.790Z,21.20
2023-05-03T00:09:37.016Z,21.23
2023-05-03T00:10:39.792Z,23.70
2023-05-03T00:11:44.927Z,19.77
2023-05-03T00:12:49.682Z,23.20
2023-05-03T00:13:54.368Z,18.20
2023-05-03T00:14:56.805Z,22.40
2023-05-03T00:16:02.054Z,22.77
2023-05-03T00:17:04.624Z,22.75
2023-05-03T00:18:09.973Z,19.75
2023-05-03T00:19:24.192Z,25.48
2023-05-03T00:20:33.520Z,21.52
2023-05-03T00:21:35.766Z,23.10
2023-05-03T00:22:40.600Z,24.50
2023-05-03T00:23:42.755Z,21.92
2023-05-03T00:24:47.692Z,20.70
2023-05-03T00:25:52.911Z,19.67
2023-05-03T00:26:57.813Z,21.30
2023-05-03T00:28:02.585Z,25.45
2023-05-03T00:29:07.507Z,30.90
2023-05-03T00:30:10.665Z,25.58
2023-05-03T00:31:15.450Z,23.65
2023-05-03T00:32:17.840Z,22.50
2023-05-03T00:33:22.617Z,22.40
2023-05-03T00:34:24.705Z,23.35
2023-05-03T00:35:30.602Z,21.63
2023-05-03T00:36:33.849Z,24.92
2023-05-03T00:37:40.603Z,19.25
2023-05-03T00:38:43.633Z,22.20
2023-05-03T00:39:48.362Z,21.63
2023-05-03T00:40:54.671Z,20.85
2023-05-03T00:42:00.577Z,19.55
2023-05-03T00:43:05.321Z,24.65
2023-05-03T00:44:11.851Z,22.25
2023-05-03T00:45:14.034Z,21.45
2023-05-03T00:46:19.100Z,23.42
2023-05-03T00:47:23.101Z,22.75
2023-05-03T00:48:28.278Z,21.70
2023-05-03T00:49:30.866Z,22.33
2023-05-03T00:50:36.205Z,22.15
2023-05-03T00:51:38.471Z,37.88
2023-05-03T00:52:44.506Z,22.77
2023-05-03T00:53:47.140Z,22.63
2023-05-03T00:54:52.368Z,30.17
2023-05-03T00:55:55.677Z,23.17
2023-05-03T00:57:02.337Z,24.60
2023-05-03T00:58:07.131Z,28.73
2023-05-03T00:59:12.851Z,25.23
2023-05-03T01:00:19.519Z,21.17
2023-05-03T01:01:25.478Z,26.23
2023-05-03T01:02:28.412Z,20.30
2023-05-03T01:03:33.704Z,22.05
2023-05-03T01:04:37.427Z,14.15
2023-05-03T01:05:53.317Z,25.42
2023-05-03T01:07:08.566Z,24.10
2023-05-03T01:08:23.662Z,22.23
2023-05-03T01:09:34.887Z,21.90
2023-05-03T01:10:52.730Z,21.75
2023-05-03T01:12:07.341Z,24.60
2023-05-03T01:13:25.906Z,24.27
2023-05-03T01:14:35.549Z,20.65
2023-05-03T01:15:49.088Z,23.38
2023-05-03T01:16:56.995Z,24.15
2023-05-03T01:18:10.478Z,22.63
2023-05-03T01:19:26.776Z,25.08
2023-05-03T01:20:31.255Z,23.23
2023-05-03T01:21:37.509Z,22.98
2023-05-03T01:22:47.360Z,22.63
2023-05-03T01:23:59.974Z,23.27
2023-05-03T01:25:07.966Z,23.15
2023-05-03T01:26:22.727Z,25.17
2023-05-03T01:27:24.907Z,23.42
2023-05-03T01:28:29.905Z,26.33
2023-05-03T01:29:32.313Z,20.38
2023-05-03T01:30:37.800Z,26.55
2023-05-03T01:31:44.679Z,26.35
2023-05-03T01:32:57.639Z,23.42
2023-05-03T01:34:17.225Z,32.10
2023-05-03T01:35:26.932Z,24.92
2023-05-03T01:36:35.760Z,20.77
2023-05-03T01:37:39.513Z,21.67
2023-05-03T01:38:45.364Z,22.52
2023-05-03T01:39:55.048Z,24.90
2023-05-03T01:41:05.410Z,25.08
2023-05-03T01:42:07.869Z,26.83
2023-05-03T01:43:16.501Z,27.80
2023-05-03T01:44:19.884Z,25.90
2023-05-03T01:45:25.784Z,21.67
2023-05-03T01:46:28.068Z,24.98
2023-05-03T01:47:33.590Z,25.35
2023-05-03T01:48:35.787Z,24.83
2023-05-03T01:49:40.758Z,27.08
2023-05-03T01:50:42.989Z,27.30
2023-05-03T01:51:48.080Z,24.52
2023-05-03T01:52:52.725Z,26.58
2023-05-03T01:53:57.736Z,26.05
2023-05-03T01:55:00.449Z,25.95
2023-05-03T01:56:09.390Z,29.27
2023-05-03T01:57:12.748Z,30.38
2023-05-03T01:58:17.540Z,27.35
2023-05-03T01:59:19.696Z,28.98
2023-05-03T02:00:25.087Z,26.27
2023-05-03T02:01:27.354Z,28.17
2023-05-03T02:02:32.125Z,25.83
2023-05-03T02:03:34.543Z,25.40
2023-05-03T02:04:39.813Z,31.95
2023-05-03T02:05:43.051Z,27.20
2023-05-03T02:06:48.052Z,21.67
2023-05-03T02:07:50.304Z,30.42
2023-05-03T02:08:57.483Z,26.50
2023-05-03T02:09:59.528Z,28.20
2023-05-03T02:11:07.358Z,27.55
2023-05-03T02:12:10.214Z,29.13
2023-05-03T02:13:16.780Z,30.70
2023-05-03T02:14:19.221Z,29.55
2023-05-03T02:15:24.364Z,29.63
2023-05-03T02:16:29.699Z,31.00
2023-05-03T02:17:32.212Z,26.90
2023-05-03T02:18:37.693Z,29.17
2023-05-03T02:19:39.827Z,26.83
2023-05-03T02:20:48.530Z,25.42
2023-05-03T02:21:52.080Z,28.35
2023-05-03T02:22:57.165Z,26.55
2023-05-03T02:24:00.152Z,27.73
2023-05-03T02:25:05.494Z,30.00
2023-05-03T02:26:13.180Z,29.35
2023-05-03T02:27:16.022Z,28.98
2023-05-03T02:28:23.565Z,27.15
2023-05-03T02:29:25.845Z,27.92
2023-05-03T02:30:30.840Z,27.98
2023-05-03T02:31:33.291Z,30.45
2023-05-03T02:32:38.470Z,29.45
2023-05-03T02:33:40.880Z,29.65
2023-05-03T02:34:47.622Z,28.00
2023-05-03T02:35:51.084Z,28.27
2023-05-03T02:36:56.051Z,28.05
2023-05-03T02:37:58.298Z,26.38
2023-05-03T02:39:17.395Z,31.20
2023-05-03T02:40:19.702Z,32.65
2023-05-03T02:41:27.615Z,31.75
2023-05-03T02:42:29.768Z,27.83
2023-05-03T02:43:34.746Z,27.45
2023-05-03T02:44:36.964Z,32.67
2023-05-03T02:45:41.818Z,29.52
2023-05-03T02:46:44.118Z,37.20
2023-05-03T02:47:49.262Z,24.63
2023-05-03T02:48:51.831Z,30.88
2023-05-03T02:49:56.850Z,34.25
2023-05-03T02:51:01.514Z,30.52
2023-05-03T02:52:06.666Z,35.00
2023-05-03T02:53:09.068Z,33.42
2023-05-03T02:54:13.922Z,36.90
2023-05-03T02:55:16.911Z,32.05
2023-05-03T02:56:21.886Z,30.45
2023-05-03T02:57:27.443Z,31.45
2023-05-03T02:58:34.262Z,29.98
2023-05-03T02:59:37.150Z,29.70
2023-05-03T03:00:42.171Z,31.70
2023-05-03T03:01:46.284Z,25.60
2023-05-03T03:02:51.475Z,29.92
2023-05-03T03:03:53.930Z,27.65
2023-05-03T03:05:00.593Z,30.70
2023-05-03T03:06:03.199Z,36.63
2023-05-03T03:07:12.029Z,29.27
2023-05-03T03:08:14.229Z,34.78
2023-05-03T03:09:19.307Z,29.48
2023-05-03T03:10:21.545Z,31.55
2023-05-03T03:11:27.087Z,32.03
2023-05-03T03:12:31.967Z,31.50
2023-05-03T03:13:40.010Z,32.45
2023-05-03T03:14:44.274Z,32.85
2023-05-03T03:15:49.094Z,29.88
2023-05-03T03:16:53.929Z,36.08
2023-05-03T03:17:59.006Z,33.25
2023-05-03T03:19:01.219Z,30.30
2023-05-03T03:20:07.754Z,32.15
2023-05-03T03:21:10.098Z,33.05
2023-05-03T03:22:15.039Z,36.05
2023-05-03T03:23:17.266Z,29.25
2023-05-03T03:24:22.497Z,29.23
2023-05-03T03:25:24.827Z,30.75
2023-05-03T03:26:29.887Z,32.15
2023-05-03T03:27:35.244Z,32.38
2023-05-03T03:28:40.912Z,29.05
2023-05-03T03:29:43.078Z,32.70
2023-05-03T03:30:49.851Z,32.40
2023-05-03T03:31:52.274Z,33.97
2023-05-03T03:32:57.246Z,29.00
2023-05-03T03:33:59.358Z,29.40
2023-05-03T03:35:05.968Z,32.47
2023-05-03T03:36:11.590Z,32.65
2023-05-03T03:37:16.310Z,33.47
2023-05-03T03:38:18.460Z,26.40
2023-05-03T03:39:27.096Z,28.85
2023-05-03T03:40:29.159Z,31.98
2023-05-03T03:41:34.045Z,30.35
2023-05-03T03:42:40.080Z,30.77
2023-05-03T03:43:45.300Z,33.28
2023-05-03T03:44:47.586Z,28.55
2023-05-03T03:45:52.539Z,30.67
2023-05-03T03:46:54.702Z,30.50
2023-05-03T03:47:59.921Z,33.65
2023-05-03T03:49:02.031Z,24.98
2023-05-03T03:50:07.721Z,32.42
2023-05-03T03:51:09.801Z,31.77
2023-05-03T03:52:14.767Z,33.40
2023-05-03T03:53:16.924Z,29.95
2023-05-03T03:54:21.829Z,30.70
2023-05-03T03:55:24.094Z,30.52
2023-05-03T03:56:29.055Z,30.67
2023-05-03T03:57:32.138Z,29.92
2023-05-03T03:58:39.490Z,34.75
2023-05-03T03:59:41.606Z,30.33
2023-05-03T04:00:46.777Z,27.95
2023-05-03T04:01:48.909Z,30.42
2023-05-03T04:02:55.556Z,30.95
2023-05-03T04:03:58.151Z,29.70
2023-05-03T04:05:03.002Z,31.65
2023-05-03T04:06:05.655Z,30.58
2023-05-03T04:07:12.021Z,31.92
2023-05-03T04:08:14.137Z,31.88
2023-05-03T04:09:19.101Z,27.60
2023-05-03T04:10:21.283Z,29.38
2023-05-03T04:11:26.227Z,28.13
2023-05-03T04:12:28.873Z,29.00
2023-05-03T04:13:34.130Z,31.60
2023-05-03T04:14:38.861Z,28.95
2023-05-03T04:15:43.895Z,32.35
2023-05-03T04:16:45.970Z,31.13
2023-05-03T04:17:51.010Z,30.58
2023-05-03T04:18:53.334Z,31.80
2023-05-03T04:19:58.343Z,34.88
2023-05-03T04:21:00.896Z,30.95
2023-05-03T04:22:05.968Z,33.97
2023-05-03T04:23:08.156Z,36.05
2023-05-03T04:24:14.360Z,36.78
2023-05-03T04:25:17.510Z,35.17
2023-05-03T04:26:31.200Z,36.25
2023-05-03T04:27:34.554Z,31.95
2023-05-03T04:28:39.606Z,32.53
2023-05-03T04:29:45.035Z,33.38
2023-05-03T04:30:50.129Z,34.00
2023-05-03T04:31:52.394Z,31.77
2023-05-03T04:33:00.247Z,32.40
2023-05-03T04:34:05.057Z,31.02
2023-05-03T04:35:10.768Z,38.92
2023-05-03T04:36:19.110Z,35.78
2023-05-03T04:37:22.656Z,34.65
2023-05-03T04:38:27.380Z,33.88
2023-05-03T04:39:29.834Z,34.55
2023-05-03T04:40:34.939Z,35.33
2023-05-03T04:41:39.791Z,36.25
2023-05-03T04:42:43.972Z,35.38
2023-05-03T04:43:49.503Z,36.47
2023-05-03T04:44:54.618Z,36.78
2023-05-03T04:45:59.745Z,33.83
2023-05-03T04:47:03.015Z,37.35
2023-05-03T04:48:09.561Z,37.33
2023-05-03T04:49:11.632Z,37.97
2023-05-03T04:50:16.787Z,36.05
2023-05-03T04:51:21.558Z,37.58
2023-05-03T04:52:23.723Z,37.13
2023-05-03T04:53:29.497Z,33.50
2023-05-03T04:54:32.549Z,36.05
2023-05-03T04:55:37.418Z,34.90
2023-05-03T04:56:39.575Z,31.83
2023-05-03T04:57:45.814Z,33.67
2023-05-03T04:58:47.920Z,33.67
2023-05-03T04:59:54.234Z,35.45
2023-05-03T05:00:59.007Z,33.40
2023-05-03T05:02:04.075Z,33.65
2023-05-03T05:03:06.683Z,41.47
2023-05-03T05:04:11.918Z,33.20
2023-05-03T05:05:14.217Z,28.92
2023-05-03T05:06:18.983Z,34.20
2023-05-03T05:07:21.168Z,35.08
2023-05-03T05:08:26.264Z,32.70
2023-05-03T05:09:31.328Z,34.78
2023-05-03T05:10:40.376Z,34.17
2023-05-03T05:11:42.585Z,30.95
2023-05-03T05:12:47.721Z,37.10
2023-05-03T05:13:49.997Z,34.97
2023-05-03T05:14:54.844Z,32.08
2023-05-03T05:15:59.999Z,33.13
2023-05-03T05:17:04.952Z,35.10
2023-05-03T05:18:10.721Z,34.55
2023-05-03T05:19:13.298Z,32.83
2023-05-03T05:20:19.071Z,35.85
2023-05-03T05:21:21.351Z,31.52
2023-05-03T05:22:26.339Z,29.27
2023-05-03T05:23:28.484Z,29.95
2023-05-03T05:24:33.250Z,30.73
2023-05-03T05:25:35.338Z,35.25
2023-05-03T05:26:40.228Z,31.08
2023-05-03T05:27:45.250Z,40.03
2023-05-03T05:28:48.468Z,32.95
2023-05-03T05:29:55.424Z,28.20
2023-05-03T05:31:00.227Z,30.15
2023-05-03T05:32:06.247Z,32.92
2023-05-03T05:33:08.818Z,29.95
2023-05-03T05:34:14.021Z,31.85
2023-05-03T05:35:17.998Z,28.52
2023-05-03T05:36:22.736Z,27.48
2023-05-03T05:37:30.958Z,28.80
2023-05-03T05:38:33.125Z,27.98
2023-05-03T05:39:37.882Z,26.55
2023-05-03T05:40:40.090Z,25.40
2023-05-03T05:41:44.864Z,26.92
2023-05-03T05:42:48.768Z,26.30
2023-05-03T05:43:55.503Z,32.42
2023-05-03T05:45:00.317Z,23.33
2023-05-03T05:46:08.627Z,27.20
2023-05-03T05:47:13.866Z,28.50
2023-05-03T05:48:16.161Z,27.95
2023-05-03T05:49:21.574Z,27.65
2023-05-03T05:50:26.764Z,26.88
2023-05-03T05:51:32.012Z,25.00
2023-05-03T05:52:34.215Z,26.85
2023-05-03T05:53:39.144Z,25.73
2023-05-03T05:54:43.919Z,27.27
2023-05-03T05:55:46.070Z,25.30
2023-05-03T05:56:51.240Z,23.73
2023-05-03T05:57:53.523Z,25.40
2023-05-03T05:58:58.680Z,23.50
2023-05-03T06:00:03.468Z,25.42
2023-05-03T06:01:11.211Z,25.23
2023-05-03T06:02:17.113Z,27.08
2023-05-03T06:03:22.145Z,27.70
2023-05-03T06:04:27.277Z,24.25
2023-05-03T06:05:32.237Z,26.45
2023-05-03T06:06:40.982Z,26.40
2023-05-03T06:07:43.217Z,25.17
2023-05-03T06:08:50.388Z,28.35
2023-05-03T06:09:52.570Z,27.10
2023-05-03T06:10:57.452Z,23.50
2023-05-03T06:11:59.504Z,28.90
2023-05-03T06:13:05.071Z,26.92
2023-05-03T06:14:09.756Z,30.48
2023-05-03T06:15:17.736Z,35.42
2023-05-03T06:16:25.446Z,30.98
2023-05-03T06:17:27.942Z,28.35
2023-05-03T06:18:32.829Z,30.63
2023-05-03T06:19:34.900Z,27.80
2023-05-03T06:20:39.813Z,28.17
2023-05-03T06:21:41.971Z,29.98
2023-05-03T06:22:47.178Z,32.40
2023-05-03T06:23:49.409Z,32.65
2023-05-03T06:24:58.176Z,28.92
2023-05-03T06:26:00.292Z,30.10
2023-05-03T06:27:05.286Z,28.25
2023-05-03T06:28:07.357Z,30.80
2023-05-03T06:29:12.159Z,31.90
2023-05-03T06:30:16.332Z,34.10
2023-05-03T06:31:21.531Z,31.85
2023-05-03T06:32:29.390Z,26.50
2023-05-03T06:33:34.134Z,31.95
2023-05-03T06:34:36.556Z,30.20
2023-05-03T06:35:41.435Z,30.65
2023-05-03T06:36:46.428Z,31.45
2023-05-03T06:37:48.684Z,32.28
2023-05-03T06:38:53.379Z,28.70
2023-05-03T06:39:55.573Z,29.17
2023-05-03T06:41:00.286Z,28.83
2023-05-03T06:42:05.276Z,29.33
2023-05-03T06:43:07.679Z,29.20
2023-05-03T06:44:12.642Z,26.58
2023-05-03T06:45:14.888Z,25.58
2023-05-03T06:46:21.134Z,28.70
2023-05-03T06:47:26.100Z,26.27
2023-05-03T06:48:31.404Z,29.08
2023-05-03T06:49:36.468Z,28.92
2023-05-03T06:50:39.465Z,28.15
2023-05-03T06:51:44.322Z,33.53
2023-05-03T06:52:49.317Z,24.60
2023-05-03T06:53:52.450Z,26.90
2023-05-03T06:54:57.201Z,26.10
2023-05-03T06:56:03.855Z,25.00
2023-05-03T06:57:06.275Z,25.27
2023-05-03T06:58:12.188Z,26.65
2023-05-03T06:59:17.075Z,26.60
2023-05-03T07:00:23.584Z,29.27
2023-05-03T07:01:25.737Z,30.45
2023-05-03T07:02:33.591Z,28.52
2023-05-03T07:03:40.955Z,33.55
2023-05-03T07:04:46.859Z,31.52
2023-05-03T07:05:49.262Z,28.65
2023-05-03T07:06:56.704Z,26.70
2023-05-03T07:07:59.122Z,27.13
2023-05-03T07:09:05.835Z,27.08
2023-05-03T07:10:08.643Z,29.92
2023-05-03T07:11:13.905Z,29.60
2023-05-03T07:12:16.659Z,26.10
2023-05-03T07:13:21.674Z,28.48
2023-05-03T07:14:24.488Z,21.92
2023-05-03T07:15:29.452Z,25.50
2023-05-03T07:16:31.665Z,27.38
2023-05-03T07:17:39.301Z,22.77
2023-05-03T07:18:41.465Z,23.55
2023-05-03T07:19:46.216Z,25.55
2023-05-03T07:20:51.443Z,24.27
2023-05-03T07:21:54.579Z,27.55
2023-05-03T07:22:59.872Z,25.00
2023-05-03T07:24:01.983Z,25.48
2023-05-03T07:25:12.525Z,28.17
2023-05-03T07:26:17.524Z,28.17
2023-05-03T07:27:20.688Z,27.95
2023-05-03T07:28:26.064Z,30.17
2023-05-03T07:29:30.090Z,25.17
2023-05-03T07:30:34.778Z,26.73
2023-05-03T07:31:39.647Z,29.33
2023-05-03T07:32:47.173Z,27.55
2023-05-03T07:33:52.221Z,28.25
2023-05-03T07:34:54.527Z,628.28
2023-05-03T07:35:59.316Z,653.58
2023-05-03T07:37:04.400Z,21.65
2023-05-03T07:38:09.240Z,26.23
2023-05-03T07:39:11.382Z,24.27
2023-05-03T07:40:16.689Z,25.85
2023-05-03T07:41:19.296Z,21.60
2023-05-03T07:42:23.932Z,25.85
2023-05-03T07:43:26.147Z,22.55
2023-05-03T07:44:31.435Z,22.13
2023-05-03T07:45:36.291Z,26.17
2023-05-03T07:46:41.075Z,22.98
2023-05-03T07:47:48.440Z,22.42
2023-05-03T07:48:50.691Z,31.80
2023-05-03T07:49:55.551Z,26.15
2023-05-03T07:51:00.729Z,22.90
2023-05-03T07:52:06.080Z,20.30
2023-05-03T07:53:10.930Z,21.35
2023-05-03T07:54:13.219Z,26.88
2023-05-03T07:55:21.578Z,25.25
2023-05-03T07:56:27.006Z,22.25
2023-05-03T07:57:32.079Z,25.77
2023-05-03T07:58:40.554Z,24.38
2023-05-03T07:59:43.959Z,23.02
2023-05-03T08:00:48.850Z,19.88
2023-05-03T08:01:53.711Z,26.92
2023-05-03T08:03:03.961Z,25.42
2023-05-03T08:04:09.248Z,22.25
2023-05-03T08:05:15.895Z,21.25
2023-05-03T08:06:18.566Z,21.38
2023-05-03T08:07:23.859Z,24.45
2023-05-03T08:08:28.807Z,20.77
2023-05-03T08:09:31.303Z,18.33
2023-05-03T08:10:38.103Z,21.65
2023-05-03T08:11:42.335Z,23.35
2023-05-03T08:12:48.570Z,17.65
2023-05-03T08:13:53.793Z,24.45
2023-05-03T08:14:56.738Z,18.73
2023-05-03T08:16:01.609Z,21.23
2023-05-03T08:17:08.220Z,22.70
2023-05-03T08:18:15.725Z,19.83
2023-05-03T08:19:17.888Z,20.67
2023-05-03T08:20:23.440Z,22.80
2023-05-03T08:21:28.827Z,21.50
2023-05-03T08:22:33.490Z,19.77
2023-05-03T08:23:38.324Z,21.98
2023-05-03T08:24:40.754Z,21.13
2023-05-03T08:25:45.888Z,22.20
2023-05-03T08:26:49.238Z,21.10
2023-05-03T08:27:55.829Z,18.70
2023-05-03T08:28:58.067Z,24.17
2023-05-03T08:30:04.150Z,20.20
2023-05-03T08:31:09.646Z,20.42
2023-05-03T08:32:12.006Z,23.70
2023-05-03T08:33:19.268Z,21.20
2023-05-03T08:34:23.971Z,23.60
2023-05-03T08:35:28.437Z,22.35
2023-05-03T08:36:36.206Z,19.67
2023-05-03T08:37:39.664Z,18.17
2023-05-03T08:38:49.122Z,23.95
2023-05-03T08:39:54.232Z,21.20
2023-05-03T08:41:14.754Z,19.90
2023-05-03T08:42:19.531Z,24.02
2023-05-03T08:43:27.069Z,20.52
2023-05-03T08:44:30.026Z,22.48
2023-05-03T08:45:37.313Z,19.83
2023-05-03T08:46:39.538Z,19.48
2023-05-03T08:47:45.320Z,21.17
2023-05-03T08:48:54.524Z,23.05
2023-05-03T08:49:58.606Z,22.25
2023-05-03T08:51:04.904Z,22.85
2023-05-03T08:52:07.689Z,22.60
2023-05-03T08:53:12.981Z,21.50
2023-05-03T08:54:20.792Z,25.92
2023-05-03T08:55:26.105Z,21.92
2023-05-03T08:56:35.702Z,23.05
2023-05-03T08:57:41.505Z,20.65
2023-05-03T08:58:48.792Z,19.88
2023-05-03T08:59:54.591Z,20.88
2023-05-03T09:00:59.470Z,20.02
2023-05-03T09:02:01.681Z,20.25
2023-05-03T09:03:07.792Z,22.25
2023-05-03T09:04:15.647Z,21.70
2023-05-03T09:05:39.136Z,23.10
2023-05-03T09:06:44.535Z,21.10
2023-05-03T09:08:03.989Z,22.83
2023-05-03T09:09:11.275Z,23.27
2023-05-03T09:10:26.056Z,20.27
2023-05-03T09:11:32.892Z,24.35
2023-05-03T09:12:36.732Z,24.75
2023-05-03T09:13:41.672Z,26.55
2023-05-03T09:14:47.070Z,19.83
2023-05-03T09:15:57.264Z,21.15
2023-05-03T09:17:14.868Z,19.20
2023-05-03T09:18:22.887Z,22.63
2023-05-03T09:19:30.714Z,25.95
2023-05-03T09:20:39.910Z,21.77
2023-05-03T09:21:47.460Z,22.45
2023-05-03T09:22:52.642Z,24.63
2023-05-03T09:23:57.445Z,21.98
2023-05-03T09:25:01.208Z,27.02
2023-05-03T09:26:07.384Z,21.02
2023-05-03T09:27:21.944Z,20.70
2023-05-03T09:28:24.211Z,31.08
2023-05-03T09:29:34.425Z,27.15
2023-05-03T09:30:37.134Z,23.60
2023-05-03T09:32:02.132Z,27.15
2023-05-03T09:33:04.793Z,26.05
2023-05-03T09:34:25.004Z,22.08
2023-05-03T09:35:32.895Z,21.15
2023-05-03T09:36:49.996Z,22.38
2023-05-03T09:37:54.772Z,21.08
2023-05-03T09:39:01.544Z,19.42
2023-05-03T09:40:08.250Z,23.85
2023-05-03T09:41:13.862Z,23.15
2023-05-03T09:42:21.156Z,23.73
2023-05-03T09:43:24.444Z,28.10
2023-05-03T09:44:44.752Z,26.98
2023-05-03T09:45:49.773Z,22.83
2023-05-03T09:47:07.712Z,21.95
2023-05-03T09:48:13.039Z,29.25
2023-05-03T09:49:18.304Z,26.60
2023-05-03T09:50:21.005Z,27.70
2023-05-03T09:51:28.427Z,24.55
2023-05-03T09:52:31.372Z,31.60
2023-05-03T09:53:37.389Z,31.33
2023-05-03T09:54:42.532Z,26.92
2023-05-03T09:55:45.028Z,23.08
2023-05-03T09:56:50.210Z,27.15
2023-05-03T09:57:55.929Z,24.08
2023-05-03T09:59:01.248Z,37.22
2023-05-03T10:00:04.251Z,22.58
2023-05-03T10:01:10.315Z,21.63
2023-05-03T10:02:15.133Z,23.27
2023-05-03T10:03:22.537Z,22.05
2023-05-03T10:04:29.822Z,24.85
2023-05-03T10:05:33.636Z,24.30
2023-05-03T10:06:44.240Z,17.95
2023-05-03T10:07:46.553Z,27.95
2023-05-03T10:08:55.260Z,24.58
2023-05-03T10:09:59.102Z,23.77
2023-05-03T10:11:07.001Z,24.02
2023-05-03T10:12:16.649Z,24.33
2023-05-03T10:13:19.675Z,21.67
2023-05-03T10:14:25.154Z,29.63
2023-05-03T10:15:28.857Z,24.80
2023-05-03T10:16:39.693Z,22.95
2023-05-03T10:17:48.669Z,24.85
2023-05-03T10:18:59.464Z,23.17
2023-05-03T10:20:13.429Z,22.05
2023-05-03T10:21:28.258Z,21.23
2023-05-03T10:22:33.333Z,27.33
2023-05-03T10:23:38.061Z,22.23
2023-05-03T10:25:13.569Z,21.75
2023-05-03T10:26:20.073Z,18.08
2023-05-03T10:27:24.905Z,28.38
2023-05-03T10:28:32.724Z,23.40
2023-05-03T10:29:54.888Z,20.50
2023-05-03T10:30:59.749Z,24.42
2023-05-03T10:32:04.984Z,23.48
2023-05-03T10:33:31.885Z,22.95
2023-05-03T10:34:35.182Z,26.20
2023-05-03T10:35:43.300Z,26.73
2023-05-03T10:36:49.782Z,21.10
2023-05-03T10:38:02.562Z,20.73
2023-05-03T10:39:05.286Z,19.48
2023-05-03T10:40:14.011Z,20.15
2023-05-03T10:41:27.617Z,21.55
2023-05-03T10:42:31.299Z,21.17
2023-05-03T10:43:47.157Z,21.17
2023-05-03T10:44:53.278Z,21.98
2023-05-03T10:45:59.749Z,21.50
2023-05-03T10:47:13.278Z,17.35
2023-05-03T10:48:23.544Z,17.25
2023-05-03T10:49:28.866Z,20.98
2023-05-03T10:50:31.100Z,24.15
2023-05-03T10:51:37.510Z,23.80
2023-05-03T10:52:47.766Z,18.88
2023-05-03T10:53:55.316Z,17.25
2023-05-03T10:55:00.295Z,17.42
2023-05-03T10:56:03.897Z,18.63
2023-05-03T10:57:09.067Z,18.85
2023-05-03T10:58:17.605Z,19.95
2023-05-03T10:59:23.176Z,17.92
2023-05-03T11:00:37.561Z,18.88
2023-05-03T11:01:41.707Z,18.60
2023-05-03T11:03:11.134Z,16.70
2023-05-03T11:04:21.986Z,16.42
2023-05-03T11:05:27.360Z,17.30
2023-05-03T11:06:36.694Z,20.27
2023-05-03T11:07:40.012Z,16.48
2023-05-03T11:08:51.896Z,17.48
2023-05-03T11:09:59.324Z,18.02
2023-05-03T11:11:02.764Z,20.92
2023-05-03T11:12:09.541Z,17.25
2023-05-03T11:13:15.446Z,16.67
2023-05-03T11:14:17.882Z,19.58
2023-05-03T11:15:22.844Z,18.08
2023-05-03T11:16:26.234Z,15.35
2023-05-03T11:17:31.274Z,20.27
2023-05-03T11:18:34.761Z,21.05
2023-05-03T11:19:40.093Z,18.15
2023-05-03T11:20:42.355Z,18.42
2023-05-03T11:21:48.903Z,18.42
2023-05-03T11:22:51.178Z,18.58
2023-05-03T11:23:55.934Z,21.55
2023-05-03T11:25:04.416Z,22.88
2023-05-03T11:26:08.292Z,20.20
2023-05-03T11:27:16.746Z,23.67
2023-05-03T11:28:18.852Z,21.80
2023-05-03T11:29:23.570Z,27.88
2023-05-03T11:30:25.754Z,999.90
2023-05-03T11:31:31.016Z,999.90
2023-05-03T11:32:36.863Z,221.60
2023-05-03T11:33:40.383Z,999.90
2023-05-03T11:34:45.720Z,999.90
2023-05-03T11:35:50.692Z,999.90
2023-05-03T11:36:55.445Z,999.90
2023-05-03T11:37:58.973Z,999.90
2023-05-03T11:39:06.023Z,999.90
2023-05-03T11:40:20.078Z,999.90
2023-05-03T11:41:24.932Z,999.90
2023-05-03T11:42:28.594Z,999.90
2023-05-03T11:43:33.813Z,999.90
2023-05-03T11:44:39.023Z,999.90
2023-05-03T11:45:44.641Z,999.90
2023-05-03T11:46:51.108Z,999.90
2023-05-03T11:47:57.316Z,999.90
2023-05-03T11:48:59.548Z,913.05
2023-05-03T11:50:04.562Z,632.28
2023-05-03T11:51:14.348Z,806.22
2023-05-03T11:52:24.104Z,569.97
2023-05-03T11:53:29.667Z,825.20
2023-05-03T11:54:34.368Z,751.88
2023-05-03T11:55:42.869Z,735.00
2023-05-03T11:56:47.832Z,654.03
2023-05-03T11:57:52.664Z,674.47
2023-05-03T11:58:59.820Z,704.95
2023-05-03T12:00:11.393Z,639.78
2023-05-03T12:01:16.782Z,679.45
2023-05-03T12:02:22.830Z,647.08
2023-05-03T12:03:31.963Z,669.60
2023-05-03T12:04:37.231Z,619.15
2023-05-03T12:05:44.389Z,663.40
2023-05-03T12:06:54.299Z,637.10
2023-05-03T12:08:01.277Z,570.22
2023-05-03T12:09:08.515Z,620.85
2023-05-03T12:10:23.681Z,559.33
2023-05-03T12:11:43.800Z,393.25
2023-05-03T12:13:00.780Z,506.77
2023-05-03T12:14:06.869Z,506.13
2023-05-03T12:15:11.716Z,587.80
2023-05-03T12:16:20.930Z,585.38
2023-05-03T12:17:38.615Z,546.83
2023-05-03T12:18:56.239Z,643.85
2023-05-03T12:20:51.398Z,530.42
2023-05-03T12:22:03.999Z,533.15
2023-05-03T12:23:15.582Z,550.00
2023-05-03T12:24:20.637Z,443.88
2023-05-03T12:25:27.629Z,526.53
2023-05-03T12:26:37.854Z,578.50
2023-05-03T12:27:40.862Z,526.80
2023-05-03T12:28:46.029Z,619.25
2023-05-03T12:29:51.937Z,530.28
2023-05-03T12:30:54.267Z,556.17
2023-05-03T12:32:03.724Z,673.50
2023-05-03T12:33:10.264Z,662.85
2023-05-03T12:34:32.488Z,604.85
2023-05-03T12:35:41.367Z,566.20
2023-05-03T12:36:48.977Z,413.42
2023-05-03T12:39:01.856Z,492.25
2023-05-03T12:41:22.772Z,128.73
2023-05-03T12:42:43.959Z,143.13
2023-05-03T12:43:52.511Z,175.35
2023-05-03T12:45:03.995Z,291.42
2023-05-03T12:47:27.801Z,313.77
2023-05-03T12:48:34.194Z,162.15
2023-05-03T12:49:38.674Z,268.15
2023-05-03T12:50:45.636Z,232.52
2023-05-03T12:52:02.844Z,178.13
2023-05-03T12:53:17.535Z,301.48
2023-05-03T12:54:27.174Z,348.88
2023-05-03T12:55:35.601Z,341.77
2023-05-03T12:56:41.589Z,341.38
2023-05-03T12:58:10.352Z,329.30
2023-05-03T13:00:25.436Z,341.65
2023-05-03T13:03:19.367Z,314.83
2023-05-03T13:05:31.888Z,326.10
2023-05-03T13:06:42.803Z,360.48
2023-05-03T13:07:55.698Z,345.27
2023-05-03T13:09:02.554Z,347.25
2023-05-03T13:11:16.945Z,344.48
2023-05-03T13:12:22.721Z,356.15
2023-05-03T13:13:30.832Z,352.40
2023-05-03T13:14:33.431Z,345.25
2023-05-03T13:15:40.010Z,326.50
2023-05-03T13:16:44.493Z,311.23
2023-05-03T13:17:51.502Z,283.80
2023-05-03T13:19:00.761Z,194.60
2023-05-03T13:20:08.459Z,177.98
2023-05-03T13:21:11.387Z,64.78
2023-05-03T13:22:17.313Z,23.45
2023-05-03T13:23:22.099Z,22.95
2023-05-03T13:24:26.683Z,22.50
2023-05-03T13:25:31.986Z,21.85
2023-05-03T13:26:36.133Z,24.77
2023-05-03T13:27:41.330Z,24.02
2023-05-03T13:28:48.566Z,23.70
2023-05-03T13:29:53.469Z,24.30
2023-05-03T13:30:59.594Z,21.67
2023-05-03T13:32:04.618Z,19.25
2023-05-03T13:33:09.661Z,22.70
2023-05-03T13:34:12.154Z,25.25
2023-05-03T13:35:17.032Z,24.67
2023-05-03T13:36:19.371Z,17.40
2023-05-03T13:37:24.471Z,21.30
2023-05-03T13:38:29.439Z,25.02
2023-05-03T13:39:33.197Z,28.15
2023-05-03T13:40:38.071Z,20.48
2023-05-03T13:41:41.152Z,17.15
2023-05-03T13:42:45.863Z,15.50
2023-05-03T13:43:50.939Z,18.40
2023-05-03T13:44:55.759Z,15.73
2023-05-03T13:46:01.418Z,20.13
2023-05-03T13:47:06.980Z,23.90
2023-05-03T13:48:17.802Z,16.00
2023-05-03T13:49:25.334Z,18.90
2023-05-03T13:50:32.469Z,20.08
2023-05-03T13:51:35.711Z,20.13
2023-05-03T13:52:42.123Z,18.88
2023-05-03T13:53:44.709Z,18.75
2023-05-03T13:54:52.496Z,21.38
2023-05-03T13:55:57.419Z,20.67
2023-05-03T13:57:02.419Z,19.88
2023-05-03T13:58:04.607Z,21.17
2023-05-03T13:59:15.246Z,21.95
2023-05-03T14:00:21.072Z,34.33
2023-05-03T14:01:26.563Z,18.02
2023-05-03T14:02:31.725Z,19.73
2023-05-03T14:03:37.576Z,21.52
2023-05-03T14:04:42.882Z,18.45
2023-05-03T14:05:48.258Z,19.35
2023-05-03T14:06:53.167Z,19.95
2023-05-03T14:07:58.756Z,18.17
2023-05-03T14:09:04.418Z,19.38
2023-05-03T14:10:10.999Z,20.10
2023-05-03T14:11:17.158Z,18.10
2023-05-03T14:12:22.564Z,15.20
2023-05-03T14:13:25.244Z,17.98
2023-05-03T14:14:32.869Z,16.38
2023-05-03T14:15:39.539Z,20.20